General Pedro Jose Mendez International Airport
MMCV : now visible

Airfield :











YOU CAN JOIN US ON...

 
LOGIN :

Register | Disclaimer

   EN    FR    IT 

 









Legend :    VFR   Marginal VFR   IFR   Intensive IFR   Very Intensive IFR
Visi :
Ceiling :
>= 8 km
>= 3000ft
5 to 8 km
1000 to 3000 ft
1500m to 5 km
500 to 1000 ft
800 to 1500m
200 to 500 ft
< 800m
< 200 ft
Symbols :   Thunderstorms  Fog  Heavy snow  Heavy precipitations  Wind > 20 kt






- Airport Elevation : 761 ft
- IATA code : CVM


MMCV - General Pedro Jose Mendez International

EXPIRED METARs :
  • 252241Z 17005KT 4SM SCT070 32/21 A2964 RMK 8/060 HZY
  • 252142Z 15005KT 5SM SCT020CB 33/20 A2964 RMK 8/300 HZY

TAF TAF MMCV
Valid from the 25 at 18:00 until the 26 at 18:00 UTC


251712Z 2518/2618 14010G20KT 5SM HZ BKN020
TEMPO 2522/2602 5SM TSRA BKN020CB
FM260300 12010KT P6SM SCT020
FM261200 34015KT 5SM VC RA BKN020
PROB40 2614/2618 2SM TSRA OVC010CB
MMFR FIR / North America



MET'MAP, your aeronautical weather chart ! - Copyright ORBIFLY December 2007 - Disclaimer

ORBIFLY MET'MAP TEAM :

Programming & Development : Alexandra Zaïnal
Concept & original design : Baudouin d'Aumeries
Assistance for programming : Marc-Olivier Méhu
Technical & hardware support : Manuel Goepfert

Contact : metmap@orbifly.com




SOURCES & CREDITS :

   NOAA       Earth
Advisory